createdAt,value
2023-04-11T00:00:59.421Z,99470.25
2023-04-11T00:02:17.984Z,99460.56
2023-04-11T00:03:29.330Z,99462.19
2023-04-11T00:04:39.936Z,99471.63
2023-04-11T00:06:04.360Z,99472.78
2023-04-11T00:07:41.414Z,99472.41
2023-04-11T00:08:49.474Z,99473.34
2023-04-11T00:10:29.726Z,99471.56
2023-04-11T00:11:42.061Z,99462.66
2023-04-11T00:12:49.140Z,99461.59
2023-04-11T00:13:57.789Z,99465.94
2023-04-11T00:15:12.332Z,99457.06
2023-04-11T00:16:25.140Z,99469.63
2023-04-11T00:17:33.555Z,99465.41
2023-04-11T00:19:27.480Z,99462.19
2023-04-11T00:20:53.289Z,99466.44
2023-04-11T00:24:17.159Z,99470.78
2023-04-11T00:25:39.650Z,99462.66
2023-04-11T00:26:50.091Z,99467.84
2023-04-11T00:28:49.479Z,99464.34
2023-04-11T00:30:14.262Z,99451.13
2023-04-11T00:31:41.549Z,99453.13
2023-04-11T00:32:48.816Z,99455.88
2023-04-11T00:34:21.848Z,99454.25
2023-04-11T00:35:30.892Z,99453.66
2023-04-11T00:36:42.556Z,99451.75
2023-04-11T00:37:56.190Z,99457.25
2023-04-11T00:39:13.791Z,99456.13
2023-04-11T00:40:24.527Z,99450.06
2023-04-11T00:41:37.572Z,99456.91
2023-04-11T00:42:49.978Z,99443.69
2023-04-11T00:44:00.836Z,99444.44
2023-04-11T00:45:18.694Z,99453.22
2023-04-11T00:46:22.812Z,99450.66
2023-04-11T00:47:30.436Z,99451.75
2023-04-11T00:48:37.272Z,99444.88
2023-04-11T00:49:43.586Z,99447.22
2023-04-11T00:50:49.232Z,99444.59
2023-04-11T00:52:05.095Z,99440.25
2023-04-11T00:53:13.426Z,99429.84
2023-04-11T00:54:22.664Z,99437.09
2023-04-11T00:55:33.288Z,99428.59
2023-04-11T00:56:55.945Z,99426.00
2023-04-11T00:58:01.894Z,99429.59
2023-04-11T00:59:08.088Z,99426.28
2023-04-11T01:00:16.762Z,99420.13
2023-04-11T01:01:25.202Z,99420.72
2023-04-11T01:02:29.961Z,99417.31
2023-04-11T01:03:38.345Z,99406.75
2023-04-11T01:04:43.476Z,99412.97
2023-04-11T01:05:52.579Z,99408.44
2023-04-11T01:07:04.317Z,99413.72
2023-04-11T01:08:09.621Z,99409.28
2023-04-11T01:09:22.805Z,99410.16
2023-04-11T01:10:32.316Z,99402.13
2023-04-11T01:11:37.628Z,99409.81
2023-04-11T01:12:48.258Z,99405.72
2023-04-11T01:13:56.865Z,99402.31
2023-04-11T01:15:05.278Z,99408.19
2023-04-11T01:16:16.621Z,99408.19
2023-04-11T01:17:24.393Z,99400.44
2023-04-11T01:18:29.951Z,99398.72
2023-04-11T01:19:39.572Z,99395.47
2023-04-11T01:20:49.594Z,99395.66
2023-04-11T01:22:02.939Z,99394.91
2023-04-11T01:23:14.279Z,99388.84
2023-04-11T01:24:18.359Z,99389.75
2023-04-11T01:25:25.213Z,99396.00
2023-04-11T01:26:31.830Z,99390.56
2023-04-11T01:27:38.466Z,99393.97
2023-04-11T01:28:46.445Z,99385.31
2023-04-11T01:29:52.485Z,99393.34
2023-04-11T01:30:58.228Z,99389.00
2023-04-11T01:32:03.242Z,99392.69
2023-04-11T01:33:11.810Z,99393.44
2023-04-11T01:34:19.709Z,99392.91
2023-04-11T01:35:25.037Z,99391.22
2023-04-11T01:36:31.726Z,99390.38
2023-04-11T01:37:36.822Z,99388.56
2023-04-11T01:38:41.032Z,99387.63
2023-04-11T01:39:44.974Z,99376.56
2023-04-11T01:40:49.117Z,99391.22
2023-04-11T01:41:57.043Z,99379.63
2023-04-11T01:43:03.308Z,99375.97
2023-04-11T01:44:08.613Z,99373.66
2023-04-11T01:45:13.479Z,99382.25
2023-04-11T01:46:18.045Z,99369.06
2023-04-11T01:47:22.306Z,99378.78
2023-04-11T01:48:26.903Z,99376.91
2023-04-11T01:49:31.168Z,99382.19
2023-04-11T01:50:35.110Z,99378.00
2023-04-11T01:51:38.921Z,99369.81
2023-04-11T01:52:42.492Z,99370.06
2023-04-11T01:53:47.749Z,99376.13
2023-04-11T01:54:54.281Z,99371.78
2023-04-11T01:55:58.274Z,99376.63
2023-04-11T01:57:02.450Z,99370.50
2023-04-11T01:58:06.445Z,99365.88
2023-04-11T01:59:10.480Z,99364.69
2023-04-11T02:00:15.119Z,99356.88
2023-04-11T02:01:22.816Z,99356.03
2023-04-11T02:02:26.947Z,99355.31
2023-04-11T02:03:31.938Z,99350.22
2023-04-11T02:04:36.233Z,99351.16
2023-04-11T02:05:40.590Z,99349.47
2023-04-11T02:06:45.107Z,99349.28
2023-04-11T02:07:49.211Z,99340.59
2023-04-11T02:08:53.607Z,99346.72
2023-04-11T02:09:59.048Z,99345.25
2023-04-11T02:11:03.317Z,99341.91
2023-04-11T02:12:11.372Z,99343.66
2023-04-11T02:13:15.644Z,99342.44
2023-04-11T02:14:20.918Z,99340.66
2023-04-11T02:15:27.288Z,99338.72
2023-04-11T02:16:31.753Z,99343.16
2023-04-11T02:17:37.206Z,99344.22
2023-04-11T02:18:44.251Z,99345.59
2023-04-11T02:19:48.154Z,99349.59
2023-04-11T02:20:52.885Z,99355.91
2023-04-11T02:21:56.659Z,99350.63
2023-04-11T02:23:04.596Z,99342.59
2023-04-11T02:24:08.614Z,99347.78
2023-04-11T02:25:12.243Z,99350.53
2023-04-11T02:26:16.354Z,99346.94
2023-04-11T02:27:20.856Z,99348.56
2023-04-11T02:28:24.882Z,99348.56
2023-04-11T02:29:31.211Z,99342.94
2023-04-11T02:30:35.617Z,99342.00
2023-04-11T02:31:40.632Z,99350.78
2023-04-11T02:32:52.275Z,99338.38
2023-04-11T02:33:56.343Z,99336.81
2023-04-11T02:35:00.895Z,99331.22
2023-04-11T02:36:05.740Z,99327.97
2023-04-11T02:37:09.735Z,99334.34
2023-04-11T02:38:14.000Z,99332.28
2023-04-11T02:39:19.791Z,99334.94
2023-04-11T02:40:23.642Z,99333.25
2023-04-11T02:41:27.668Z,99325.81
2023-04-11T02:42:31.740Z,99328.28
2023-04-11T02:43:35.661Z,99325.97
2023-04-11T02:44:39.513Z,99329.63
2023-04-11T02:45:52.455Z,99326.25
2023-04-11T02:47:00.320Z,99327.75
2023-04-11T02:48:05.890Z,99324.88
2023-04-11T02:49:09.968Z,99321.81
2023-04-11T02:50:13.475Z,99325.31
2023-04-11T02:51:17.618Z,99320.09
2023-04-11T02:52:22.587Z,99318.75
2023-04-11T02:53:27.307Z,99323.00
2023-04-11T02:54:31.236Z,99319.28
2023-04-11T02:55:35.256Z,99319.59
2023-04-11T02:56:39.113Z,99317.13
2023-04-11T02:57:42.954Z,99312.28
2023-04-11T02:58:47.099Z,99311.25
2023-04-11T02:59:51.062Z,99317.28
2023-04-11T03:00:58.055Z,99316.28
2023-04-11T03:02:02.361Z,99310.06
2023-04-11T03:03:06.737Z,99304.41
2023-04-11T03:04:11.153Z,99305.25
2023-04-11T03:05:15.884Z,99310.63
2023-04-11T03:06:19.556Z,99303.66
2023-04-11T03:07:23.703Z,99310.50
2023-04-11T03:08:27.927Z,99312.69
2023-04-11T03:09:32.692Z,99310.72
2023-04-11T03:10:36.975Z,99311.91
2023-04-11T03:11:41.410Z,99316.75
2023-04-11T03:12:45.506Z,99316.81
2023-04-11T03:13:49.553Z,99315.25
2023-04-11T03:14:54.381Z,99310.78
2023-04-11T03:15:58.355Z,99313.66
2023-04-11T03:17:02.530Z,99308.47
2023-04-11T03:18:06.656Z,99305.50
2023-04-11T03:19:10.759Z,99307.13
2023-04-11T03:20:19.949Z,99316.81
2023-04-11T03:21:23.882Z,99314.28
2023-04-11T03:22:27.556Z,99311.19
2023-04-11T03:23:32.230Z,99307.53
2023-04-11T03:24:36.095Z,99305.56
2023-04-11T03:25:40.793Z,99309.13
2023-04-11T03:26:44.935Z,99299.69
2023-04-11T03:27:49.489Z,99297.47
2023-04-11T03:28:55.064Z,99302.25
2023-04-11T03:29:59.418Z,99298.91
2023-04-11T03:31:04.571Z,99294.63
2023-04-11T03:32:08.792Z,99302.13
2023-04-11T03:33:13.597Z,99298.53
2023-04-11T03:34:18.609Z,99298.41
2023-04-11T03:35:22.680Z,99298.47
2023-04-11T03:36:29.679Z,99300.09
2023-04-11T03:37:33.973Z,99296.66
2023-04-11T03:38:37.816Z,99299.84
2023-04-11T03:39:41.649Z,99296.63
2023-04-11T03:40:45.943Z,99297.06
2023-04-11T03:41:50.093Z,99295.41
2023-04-11T03:42:54.013Z,99297.53
2023-04-11T03:43:58.267Z,99296.50
2023-04-11T03:45:02.643Z,99297.16
2023-04-11T03:46:06.910Z,99302.34
2023-04-11T03:47:11.515Z,99290.34
2023-04-11T03:48:18.198Z,99291.22
2023-04-11T03:49:24.277Z,99293.84
2023-04-11T03:50:28.497Z,99287.47
2023-04-11T03:51:32.833Z,99287.91
2023-04-11T03:52:36.992Z,99282.47
2023-04-11T03:53:41.437Z,99283.44
2023-04-11T03:54:47.832Z,99282.81
2023-04-11T03:55:53.617Z,99277.94
2023-04-11T03:56:58.392Z,99279.81
2023-04-11T03:58:02.530Z,99280.13
2023-04-11T03:59:07.091Z,99280.97
2023-04-11T04:00:12.891Z,99280.34
2023-04-11T04:01:16.816Z,99279.41
2023-04-11T04:02:21.191Z,99271.94
2023-04-11T04:03:25.809Z,99265.38
2023-04-11T04:04:32.724Z,99269.00
2023-04-11T04:05:37.534Z,99267.38
2023-04-11T04:06:43.216Z,99269.31
2023-04-11T04:07:46.935Z,99265.28
2023-04-11T04:08:50.773Z,99274.44
2023-04-11T04:09:55.030Z,99275.38
2023-04-11T04:10:58.845Z,99270.16
2023-04-11T04:12:02.788Z,99276.63
2023-04-11T04:13:06.537Z,99280.97
2023-04-11T04:14:10.737Z,99276.38
2023-04-11T04:15:16.228Z,99275.91
2023-04-11T04:16:21.687Z,99277.53
2023-04-11T04:17:25.622Z,99274.34
2023-04-11T04:18:29.386Z,99290.28
2023-04-11T04:19:36.880Z,99285.13
2023-04-11T04:20:42.483Z,99283.00
2023-04-11T04:21:46.858Z,99291.66
2023-04-11T04:22:53.546Z,99289.97
2023-04-11T04:23:57.716Z,99296.09
2023-04-11T04:25:02.391Z,99293.00
2023-04-11T04:26:06.980Z,99294.75
2023-04-11T04:27:11.457Z,99298.94
2023-04-11T04:28:20.647Z,99295.06
2023-04-11T04:29:29.975Z,99304.69
2023-04-11T04:30:38.338Z,99285.53
2023-04-11T04:31:43.544Z,99292.13
2023-04-11T04:32:47.683Z,99285.31
2023-04-11T04:33:52.183Z,99283.53
2023-04-11T04:34:56.329Z,99285.84
2023-04-11T04:36:00.565Z,99285.13
2023-04-11T04:37:05.247Z,99285.00
2023-04-11T04:38:09.840Z,99280.97
2023-04-11T04:39:18.171Z,99274.91
2023-04-11T04:40:22.793Z,99284.69
2023-04-11T04:41:34.126Z,99271.59
2023-04-11T04:42:41.536Z,99271.09
2023-04-11T04:43:46.399Z,99281.19
2023-04-11T04:44:51.862Z,99273.78
2023-04-11T04:45:56.577Z,99275.81
2023-04-11T04:47:00.807Z,99273.19
2023-04-11T04:48:05.239Z,99278.06
2023-04-11T04:49:09.747Z,99276.16
2023-04-11T04:50:13.790Z,99265.28
2023-04-11T04:51:17.738Z,99265.50
2023-04-11T04:52:22.078Z,99265.50
2023-04-11T04:53:26.228Z,99262.78
2023-04-11T04:54:31.550Z,99255.72
2023-04-11T04:55:36.078Z,99259.28
2023-04-11T04:56:40.026Z,99252.22
2023-04-11T04:57:43.537Z,99254.28
2023-04-11T04:58:47.552Z,99247.97
2023-04-11T04:59:51.466Z,99251.66
2023-04-11T05:00:58.099Z,99248.06
2023-04-11T05:02:02.175Z,99253.78
2023-04-11T05:03:09.000Z,99244.69
2023-04-11T05:04:13.192Z,99242.06
2023-04-11T05:05:17.641Z,99236.06
2023-04-11T05:06:21.544Z,99216.66
2023-04-11T05:07:26.559Z,99235.94
2023-04-11T05:08:30.461Z,99232.94
2023-04-11T05:09:34.259Z,99225.88
2023-04-11T05:10:38.224Z,99229.22
2023-04-11T05:11:42.992Z,99227.66
2023-04-11T05:12:46.928Z,99228.47
2023-04-11T05:13:51.044Z,99222.25
2023-04-11T05:14:57.001Z,99218.41
2023-04-11T05:16:02.413Z,99215.84
2023-04-11T05:17:06.435Z,99218.34
2023-04-11T05:18:10.481Z,99216.19
2023-04-11T05:19:14.402Z,99218.56
2023-04-11T05:20:20.153Z,99217.47
2023-04-11T05:21:24.152Z,99220.78
2023-04-11T05:22:27.899Z,99219.59
2023-04-11T05:23:32.204Z,99224.97
2023-04-11T05:24:36.263Z,99229.13
2023-04-11T05:25:40.428Z,99228.13
2023-04-11T05:26:45.015Z,99226.06
2023-04-11T05:27:48.980Z,99231.34
2023-04-11T05:28:52.912Z,99227.72
2023-04-11T05:29:56.608Z,99230.16
2023-04-11T05:31:02.551Z,99228.63
2023-04-11T05:32:06.469Z,99220.97
2023-04-11T05:33:13.183Z,99230.25
2023-04-11T05:34:17.145Z,99228.47
2023-04-11T05:35:24.782Z,99215.19
2023-04-11T05:36:29.842Z,99217.81
2023-04-11T05:37:35.065Z,99215.03
2023-04-11T05:38:39.388Z,99213.16
2023-04-11T05:39:44.271Z,99216.72
2023-04-11T05:40:48.302Z,99209.91
2023-04-11T05:41:53.432Z,99208.97
2023-04-11T05:42:58.008Z,99208.53
2023-04-11T05:44:02.429Z,99200.88
2023-04-11T05:45:07.644Z,99196.97
2023-04-11T05:46:12.857Z,99201.22
2023-04-11T05:47:19.341Z,99202.06
2023-04-11T05:48:24.130Z,99197.47
2023-04-11T05:49:31.434Z,99197.81
2023-04-11T05:50:36.153Z,99193.53
2023-04-11T05:51:39.886Z,99195.94
2023-04-11T05:52:43.622Z,99191.25
2023-04-11T05:53:48.665Z,99197.13
2023-04-11T05:54:52.502Z,99193.56
2023-04-11T05:55:56.253Z,99194.31
2023-04-11T05:57:00.180Z,99186.56
2023-04-11T05:58:04.666Z,99188.19
2023-04-11T05:59:08.569Z,99193.56
2023-04-11T06:00:14.556Z,99188.28
2023-04-11T06:01:22.549Z,99184.50
2023-04-11T06:02:28.918Z,99188.84
2023-04-11T06:03:32.971Z,99191.34
2023-04-11T06:04:37.015Z,99185.38
2023-04-11T06:05:41.288Z,99179.84
2023-04-11T06:06:46.226Z,99182.28
2023-04-11T06:07:50.368Z,99179.31
2023-04-11T06:08:54.696Z,99177.41
2023-04-11T06:09:59.114Z,99178.69
2023-04-11T06:11:03.113Z,99172.28
2023-04-11T06:12:08.229Z,99174.91
2023-04-11T06:13:12.555Z,99170.13
2023-04-11T06:14:18.499Z,99163.16
2023-04-11T06:15:25.267Z,99161.84
2023-04-11T06:16:32.756Z,99159.81
2023-04-11T06:17:37.088Z,99151.69
2023-04-11T06:18:41.644Z,99154.53
2023-04-11T06:19:45.668Z,99159.34
2023-04-11T06:20:49.845Z,99155.91
2023-04-11T06:21:53.525Z,99145.75
2023-04-11T06:22:57.350Z,99159.75
2023-04-11T06:24:09.723Z,99151.34
2023-04-11T06:25:19.037Z,99153.50
2023-04-11T06:26:22.804Z,99152.09
2023-04-11T06:27:27.429Z,99154.50
2023-04-11T06:28:31.782Z,99147.03
2023-04-11T06:29:38.771Z,99147.25
2023-04-11T06:30:43.318Z,99145.06
2023-04-11T06:31:47.650Z,99147.13
2023-04-11T06:32:52.795Z,99139.78
2023-04-11T06:33:57.364Z,99129.38
2023-04-11T06:35:01.774Z,99134.25
2023-04-11T06:36:06.346Z,99132.28
2023-04-11T06:37:11.351Z,99129.69
2023-04-11T06:38:15.575Z,99128.88
2023-04-11T06:39:20.899Z,99129.63
2023-04-11T06:40:24.896Z,99134.94
2023-04-11T06:41:29.436Z,99125.34
2023-04-11T06:42:33.994Z,99124.41
2023-04-11T06:43:38.096Z,99122.31
2023-04-11T06:44:42.146Z,99123.09
2023-04-11T06:45:47.769Z,99116.63
2023-04-11T06:46:52.916Z,99116.09
2023-04-11T06:48:01.366Z,99109.44
2023-04-11T06:49:07.370Z,99122.81
2023-04-11T06:50:12.468Z,99119.44
2023-04-11T06:51:17.534Z,99125.44
2023-04-11T06:52:21.738Z,99125.03
2023-04-11T06:53:26.463Z,99126.50
2023-04-11T06:54:30.469Z,99122.44
2023-04-11T06:55:34.378Z,99126.28
2023-04-11T06:56:38.349Z,99126.25
2023-04-11T06:57:44.266Z,99117.13
2023-04-11T06:58:48.310Z,99118.44
2023-04-11T06:59:53.427Z,99122.66
2023-04-11T07:00:57.742Z,99113.97
2023-04-11T07:02:01.705Z,99108.50
2023-04-11T07:03:09.475Z,99114.91
2023-04-11T07:04:14.943Z,99112.69
2023-04-11T07:05:19.509Z,99111.47
2023-04-11T07:06:23.812Z,99112.84
2023-04-11T07:07:28.118Z,99105.91
2023-04-11T07:08:36.361Z,99107.03
2023-04-11T07:09:41.253Z,99112.91
2023-04-11T07:10:46.030Z,99103.63
2023-04-11T07:11:50.975Z,99098.56
2023-04-11T07:12:55.805Z,99100.34
2023-04-11T07:14:01.247Z,99103.06
2023-04-11T07:15:06.656Z,99101.47
2023-04-11T07:16:11.516Z,99095.22
2023-04-11T07:17:16.337Z,99095.16
2023-04-11T07:18:19.913Z,99096.50
2023-04-11T07:19:23.852Z,99097.69
2023-04-11T07:20:28.245Z,99084.28
2023-04-11T07:21:32.819Z,99090.28
2023-04-11T07:22:37.100Z,99088.84
2023-04-11T07:23:43.289Z,99081.28
2023-04-11T07:24:51.787Z,99080.31
2023-04-11T07:25:56.989Z,99080.81
2023-04-11T07:27:01.990Z,99080.09
2023-04-11T07:28:08.993Z,99074.88
2023-04-11T07:29:14.901Z,99069.13
2023-04-11T07:30:20.129Z,99074.97
2023-04-11T07:31:25.274Z,99076.28
2023-04-11T07:32:29.988Z,99072.13
2023-04-11T07:33:34.550Z,99069.44
2023-04-11T07:34:38.850Z,99073.03
2023-04-11T07:35:43.969Z,99063.66
2023-04-11T07:36:50.332Z,99073.94
2023-04-11T07:37:54.596Z,99069.72
2023-04-11T07:39:00.267Z,99071.06
2023-04-11T07:40:12.144Z,99055.25
2023-04-11T07:41:16.641Z,99054.41
2023-04-11T07:42:21.560Z,99058.53
2023-04-11T07:43:28.412Z,99066.81
2023-04-11T07:44:32.344Z,99058.78
2023-04-11T07:45:37.537Z,99060.75
2023-04-11T07:46:41.494Z,99059.56
2023-04-11T07:47:45.597Z,99053.66
2023-04-11T07:48:49.344Z,99050.69
2023-04-11T07:49:53.387Z,99040.72
2023-04-11T07:51:07.547Z,99042.22
2023-04-11T07:52:14.064Z,99039.50
2023-04-11T07:53:18.704Z,99047.06
2023-04-11T07:54:25.356Z,99051.09
2023-04-11T07:55:28.969Z,99048.00
2023-04-11T07:56:32.829Z,99038.09
2023-04-11T07:57:43.098Z,99042.59
2023-04-11T07:58:48.557Z,99035.16
2023-04-11T07:59:52.824Z,99043.25
2023-04-11T08:01:03.270Z,99033.25
2023-04-11T08:02:08.297Z,99034.00
2023-04-11T08:03:13.646Z,99027.56
2023-04-11T08:04:18.319Z,99030.31
2023-04-11T08:05:22.325Z,99023.16
2023-04-11T08:06:27.267Z,99022.22
2023-04-11T08:07:32.523Z,99030.44
2023-04-11T08:08:37.168Z,99026.94
2023-04-11T08:09:44.561Z,99021.03
2023-04-11T08:10:52.352Z,99013.25
2023-04-11T08:11:59.856Z,99006.72
2023-04-11T08:13:04.078Z,99017.31
2023-04-11T08:14:08.768Z,99006.03
2023-04-11T08:15:13.358Z,99013.91
2023-04-11T08:16:17.565Z,98997.31
2023-04-11T08:17:28.636Z,99001.72
2023-04-11T08:18:35.517Z,99001.78
2023-04-11T08:19:40.296Z,99000.34
2023-04-11T08:20:44.737Z,99000.72
2023-04-11T08:21:48.993Z,98997.31
2023-04-11T08:22:58.074Z,98998.50
2023-04-11T08:24:04.664Z,99000.88
2023-04-11T08:25:12.210Z,98997.63
2023-04-11T08:26:17.704Z,98985.44
2023-04-11T08:27:22.252Z,98990.22
2023-04-11T08:28:26.995Z,98993.94
2023-04-11T08:29:31.474Z,98979.84
2023-04-11T08:30:35.789Z,98982.38
2023-04-11T08:31:46.802Z,98977.84
2023-04-11T08:32:51.232Z,98982.78
2023-04-11T08:33:58.456Z,98978.06
2023-04-11T08:35:08.323Z,98969.34
2023-04-11T08:36:13.760Z,98971.38
2023-04-11T08:37:19.659Z,98964.81
2023-04-11T08:38:23.514Z,98967.66
2023-04-11T08:39:27.472Z,98959.97
2023-04-11T08:40:32.670Z,98954.50
2023-04-11T08:41:38.894Z,98954.34
2023-04-11T08:42:47.657Z,98949.91
2023-04-11T08:43:51.648Z,98946.16
2023-04-11T08:45:04.860Z,98945.91
2023-04-11T08:46:09.186Z,98937.75
2023-04-11T08:47:18.001Z,98923.50
2023-04-11T08:48:26.384Z,98930.56
2023-04-11T08:49:30.816Z,98920.44
2023-04-11T08:50:40.573Z,98911.63
2023-04-11T08:51:50.466Z,98912.00
2023-04-11T08:53:04.458Z,98913.28
2023-04-11T08:54:11.424Z,98907.06
2023-04-11T08:55:17.394Z,98905.94
2023-04-11T08:56:24.289Z,98909.41
2023-04-11T08:57:35.176Z,98903.25
2023-04-11T08:59:52.184Z,98905.06
2023-04-11T09:00:56.110Z,98901.13
2023-04-11T09:02:15.226Z,98899.16
2023-04-11T09:03:23.136Z,98902.38
2023-04-11T09:04:41.515Z,98902.81
2023-04-11T09:05:49.454Z,98895.97
2023-04-11T09:07:06.637Z,98893.28
2023-04-11T09:08:14.044Z,98883.06
2023-04-11T09:09:31.107Z,98882.59
2023-04-11T09:10:37.958Z,98888.41
2023-04-11T09:11:56.172Z,98874.31
2023-04-11T09:13:02.409Z,98882.53
2023-04-11T09:14:12.215Z,98877.13
2023-04-11T09:15:22.648Z,98877.47
2023-04-11T09:16:27.502Z,98879.78
2023-04-11T09:17:43.501Z,98874.59
2023-04-11T09:18:48.213Z,98891.03
2023-04-11T09:19:52.726Z,98886.00
2023-04-11T09:21:03.430Z,98871.03
2023-04-11T09:22:14.946Z,98893.09
2023-04-11T09:23:26.123Z,98885.66
2023-04-11T09:24:34.721Z,98888.88
2023-04-11T09:25:45.720Z,98876.81
2023-04-11T09:26:51.435Z,98874.16
2023-04-11T09:28:11.427Z,98856.22
2023-04-11T09:29:57.042Z,98858.75
2023-04-11T09:31:01.580Z,98864.97
2023-04-11T09:32:06.377Z,98862.25
2023-04-11T09:33:31.786Z,98859.84
2023-04-11T09:34:41.138Z,98856.16
2023-04-11T09:35:55.664Z,98854.09
2023-04-11T09:36:59.748Z,98856.78
2023-04-11T09:38:07.502Z,98845.88
2023-04-11T09:39:20.845Z,98836.75
2023-04-11T09:40:28.232Z,98852.03
2023-04-11T09:41:40.935Z,98842.06
2023-04-11T09:42:59.249Z,98841.00
2023-04-11T09:44:05.207Z,98842.34
2023-04-11T09:45:26.116Z,98843.63
2023-04-11T09:46:30.020Z,98850.16
2023-04-11T09:47:34.626Z,98847.47
2023-04-11T09:49:48.619Z,98832.00
2023-04-11T09:50:54.551Z,98831.50
2023-04-11T09:52:01.328Z,98835.28
2023-04-11T09:53:08.816Z,98821.16
2023-04-11T09:54:22.271Z,98825.16
2023-04-11T09:55:27.897Z,98819.84
2023-04-11T09:56:34.902Z,98820.84
2023-04-11T09:57:49.011Z,98821.47
2023-04-11T09:58:57.608Z,98809.91
2023-04-11T10:00:16.480Z,98810.72
2023-04-11T10:01:21.522Z,98800.06
2023-04-11T10:02:25.744Z,98806.44
2023-04-11T10:03:38.948Z,98794.88
2023-04-11T10:04:45.458Z,98794.41
2023-04-11T10:05:53.339Z,98794.25
2023-04-11T10:07:18.932Z,98787.69
2023-04-11T10:08:47.807Z,98790.19
2023-04-11T10:09:52.766Z,98781.31
2023-04-11T10:11:01.307Z,98785.34
2023-04-11T10:12:10.074Z,98778.28
2023-04-11T10:13:45.120Z,98776.38
2023-04-11T10:14:49.607Z,98770.88
2023-04-11T10:16:28.996Z,98769.34
2023-04-11T10:17:37.106Z,98772.53
2023-04-11T10:18:56.921Z,98773.41
2023-04-11T10:20:01.565Z,98763.84
2023-04-11T10:21:34.940Z,98761.66
2023-04-11T10:22:43.678Z,98766.00
2023-04-11T10:24:17.125Z,98762.13
2023-04-11T10:25:28.228Z,98754.94
2023-04-11T10:26:59.004Z,98761.09
2023-04-11T10:28:06.279Z,98748.38
2023-04-11T10:29:41.045Z,98756.09
2023-04-11T10:30:45.578Z,98750.19
2023-04-11T10:32:11.139Z,98753.41
2023-04-11T10:33:21.916Z,98744.50
2023-04-11T10:34:27.679Z,98738.44
2023-04-11T10:35:34.318Z,98739.59
2023-04-11T10:37:12.631Z,98739.28
2023-04-11T10:38:43.813Z,98737.28
2023-04-11T10:39:53.958Z,98739.28
2023-04-11T10:41:18.265Z,98743.03
2023-04-11T10:42:41.289Z,98734.97
2023-04-11T10:43:48.130Z,98736.31
2023-04-11T10:45:26.558Z,98739.69
2023-04-11T10:46:33.190Z,98737.00
2023-04-11T10:47:38.775Z,98737.97
2023-04-11T10:48:59.299Z,98729.63
2023-04-11T10:50:26.882Z,98733.44
2023-04-11T10:51:34.405Z,98736.44
2023-04-11T10:52:40.283Z,98735.88
2023-04-11T10:53:47.627Z,98734.56
2023-04-11T10:54:54.699Z,98734.56
2023-04-11T10:55:59.811Z,98727.50
2023-04-11T10:57:04.932Z,98728.63
2023-04-11T10:58:20.000Z,98726.16
2023-04-11T10:59:37.276Z,98730.19
2023-04-11T11:00:50.060Z,98729.00
2023-04-11T11:02:03.835Z,98726.31
2023-04-11T11:03:20.671Z,98725.94
2023-04-11T11:04:45.247Z,98726.59
2023-04-11T11:06:10.477Z,98733.97
2023-04-11T11:07:17.114Z,98717.03
2023-04-11T11:08:41.925Z,98720.38
2023-04-11T11:09:51.645Z,98718.41
2023-04-11T11:11:05.141Z,98731.13
2023-04-11T11:12:13.145Z,98717.56
2023-04-11T11:13:18.324Z,98717.72
2023-04-11T11:14:31.376Z,98722.56
2023-04-11T11:15:41.665Z,98726.56
2023-04-11T11:16:47.576Z,98719.69
2023-04-11T11:17:53.348Z,98715.53
2023-04-11T11:19:00.144Z,98711.16
2023-04-11T11:20:13.845Z,98716.66
2023-04-11T11:21:29.139Z,98714.34
2023-04-11T11:22:33.683Z,98715.00
2023-04-11T11:23:38.016Z,98710.13
2023-04-11T11:24:42.453Z,98707.44
2023-04-11T11:25:58.168Z,98697.56
2023-04-11T11:27:04.838Z,98705.28
2023-04-11T11:28:10.730Z,98705.09
2023-04-11T11:29:16.170Z,98709.66
2023-04-11T11:30:21.399Z,98711.16
2023-04-11T11:31:42.497Z,98706.94
2023-04-11T11:32:46.987Z,98705.81
2023-04-11T11:33:51.881Z,98697.09
2023-04-11T11:35:03.503Z,98699.63
2023-04-11T11:36:09.561Z,98703.16
2023-04-11T11:37:15.062Z,98690.94
2023-04-11T11:38:22.773Z,98697.97
2023-04-11T11:39:29.439Z,98697.66
2023-04-11T11:40:34.024Z,98688.28
2023-04-11T11:41:42.345Z,98686.13
2023-04-11T11:42:52.499Z,98683.44
2023-04-11T11:43:57.555Z,98681.78
2023-04-11T11:45:39.957Z,98681.78
2023-04-11T11:47:07.117Z,98691.03
2023-04-11T11:48:24.199Z,98678.09
2023-04-11T11:49:50.480Z,98681.28
2023-04-11T11:50:58.951Z,98680.81
2023-04-11T11:52:03.937Z,98679.94
2023-04-11T11:53:20.040Z,98677.59
2023-04-11T11:54:25.173Z,98679.63
2023-04-11T11:55:32.776Z,98674.44
2023-04-11T11:56:39.807Z,98680.97
2023-04-11T11:57:50.475Z,98671.56
2023-04-11T11:58:59.763Z,98676.44
2023-04-11T12:00:11.901Z,98670.75
2023-04-11T12:01:17.130Z,98674.75
2023-04-11T12:02:28.980Z,98673.44
2023-04-11T12:03:42.925Z,98666.72
2023-04-11T12:04:50.189Z,98660.34
2023-04-11T12:06:00.360Z,98661.00
2023-04-11T12:07:26.312Z,98667.72
2023-04-11T12:08:45.782Z,98648.59
2023-04-11T12:10:03.018Z,98652.28
2023-04-11T12:11:15.779Z,98653.28
2023-04-11T12:12:21.975Z,98655.31
2023-04-11T12:13:28.777Z,98650.44
2023-04-11T12:14:35.211Z,98644.88
2023-04-11T12:15:56.269Z,98644.56
2023-04-11T12:17:03.217Z,98647.06
2023-04-11T12:18:08.259Z,98655.97
2023-04-11T12:19:13.566Z,98643.72
2023-04-11T12:20:22.254Z,98637.34
2023-04-11T12:21:32.076Z,98646.06
2023-04-11T12:22:41.023Z,98637.84
2023-04-11T12:23:56.513Z,98643.72
2023-04-11T12:25:14.907Z,98640.03
2023-04-11T12:26:29.445Z,98637.34
2023-04-11T12:27:37.492Z,98636.47
2023-04-11T12:28:43.243Z,98632.78
2023-04-11T12:29:50.117Z,98638.50
2023-04-11T12:30:54.257Z,98634.28
2023-04-11T12:32:13.698Z,98634.28
2023-04-11T12:33:18.333Z,98636.50
2023-04-11T12:34:24.295Z,98635.31
2023-04-11T12:35:44.767Z,98625.25
2023-04-11T12:36:49.507Z,98631.81
2023-04-11T12:37:54.721Z,98627.44
2023-04-11T12:39:00.686Z,98629.78
2023-04-11T12:40:12.528Z,98629.28
2023-04-11T12:42:27.345Z,98621.69
2023-04-11T12:43:33.024Z,98629.59
2023-04-11T12:44:37.801Z,98624.06
2023-04-11T12:45:42.487Z,98620.53
2023-04-11T12:46:49.340Z,98620.53
2023-04-11T12:47:55.608Z,98619.34
2023-04-11T12:49:01.180Z,98613.63
2023-04-11T12:50:07.816Z,98616.50
2023-04-11T12:51:16.739Z,98614.47
2023-04-11T12:52:29.805Z,98612.47
2023-04-11T12:53:37.768Z,98615.31
2023-04-11T12:54:42.587Z,98611.44
2023-04-11T12:55:49.003Z,98612.09
2023-04-11T12:57:02.795Z,98603.72
2023-04-11T12:58:09.743Z,98602.72
2023-04-11T12:59:14.854Z,98606.56
2023-04-11T13:00:23.460Z,98602.38
2023-04-11T13:01:28.579Z,98600.53
2023-04-11T13:02:42.698Z,98592.81
2023-04-11T13:03:49.888Z,98591.16
2023-04-11T13:04:55.284Z,98589.28
2023-04-11T13:06:03.102Z,98588.94
2023-04-11T13:07:10.649Z,98587.94
2023-04-11T13:08:16.537Z,98588.09
2023-04-11T13:09:28.869Z,98581.06
2023-04-11T13:10:49.075Z,98580.91
2023-04-11T13:12:04.191Z,98579.22
2023-04-11T13:13:18.117Z,98582.94
2023-04-11T13:14:33.696Z,98582.09
2023-04-11T13:15:53.434Z,98573.38
2023-04-11T13:17:23.731Z,98579.59
2023-04-11T13:18:38.867Z,98579.59
2023-04-11T13:19:53.990Z,98570.88
2023-04-11T13:21:03.552Z,98577.28
2023-04-11T13:22:10.430Z,98574.41
2023-04-11T13:23:17.828Z,98572.91
2023-04-11T13:24:23.004Z,98569.03
2023-04-11T13:25:41.047Z,98563.34